sensor_id;sensor_type;location;lat;lon;timestamp;P1;durP1;ratioP1;P2;durP2;ratioP2
70416;SDS011;57839;51.332;12.410;2023-07-24T00:01:15;3.53;;;2.42;;
70416;SDS011;57839;51.332;12.410;2023-07-24T00:03:42;4.10;;;2.20;;
70416;SDS011;57839;51.332;12.410;2023-07-24T00:06:07;5.60;;;2.40;;
70416;SDS011;57839;51.332;12.410;2023-07-24T00:08:33;3.22;;;2.25;;
70416;SDS011;57839;51.332;12.410;2023-07-24T00:10:58;2.90;;;1.98;;
70416;SDS011;57839;51.332;12.410;2023-07-24T00:13:24;3.03;;;2.38;;
70416;SDS011;57839;51.332;12.410;2023-07-24T00:15:50;4.65;;;2.40;;
70416;SDS011;57839;51.332;12.410;2023-07-24T00:18:16;3.47;;;2.03;;
70416;SDS011;57839;51.332;12.410;2023-07-24T00:20:42;2.95;;;2.50;;
70416;SDS011;57839;51.332;12.410;2023-07-24T00:23:08;2.60;;;2.22;;
70416;SDS011;57839;51.332;12.410;2023-07-24T00:25:37;2.45;;;2.13;;
70416;SDS011;57839;51.332;12.410;2023-07-24T00:28:21;3.40;;;2.40;;
70416;SDS011;57839;51.332;12.410;2023-07-24T00:30:46;3.63;;;2.20;;
70416;SDS011;57839;51.332;12.410;2023-07-24T00:33:12;2.85;;;2.30;;
70416;SDS011;57839;51.332;12.410;2023-07-24T00:35:37;2.53;;;2.08;;
70416;SDS011;57839;51.332;12.410;2023-07-24T00:38:03;2.55;;;2.05;;
70416;SDS011;57839;51.332;12.410;2023-07-24T00:40:29;2.50;;;2.00;;
70416;SDS011;57839;51.332;12.410;2023-07-24T00:42:54;2.58;;;2.20;;
70416;SDS011;57839;51.332;12.410;2023-07-24T00:45:22;2.50;;;2.15;;
70416;SDS011;57839;51.332;12.410;2023-07-24T00:47:52;3.47;;;2.20;;
70416;SDS011;57839;51.332;12.410;2023-07-24T00:53:01;3.15;;;2.05;;
70416;SDS011;57839;51.332;12.410;2023-07-24T00:55:27;4.65;;;2.10;;
70416;SDS011;57839;51.332;12.410;2023-07-24T00:57:52;8.23;;;2.17;;
70416;SDS011;57839;51.332;12.410;2023-07-24T01:00:19;2.65;;;1.90;;
70416;SDS011;57839;51.332;12.410;2023-07-24T01:02:44;4.78;;;2.15;;
70416;SDS011;57839;51.332;12.410;2023-07-24T01:05:10;2.67;;;2.20;;
70416;SDS011;57839;51.332;12.410;2023-07-24T01:10:22;3.90;;;2.45;;
70416;SDS011;57839;51.332;12.410;2023-07-24T01:12:58;2.67;;;2.03;;
70416;SDS011;57839;51.332;12.410;2023-07-24T01:16:04;2.42;;;2.22;;
70416;SDS011;57839;51.332;12.410;2023-07-24T01:19:33;2.88;;;2.28;;
70416;SDS011;57839;51.332;12.410;2023-07-24T01:28:00;2.33;;;1.90;;
70416;SDS011;57839;51.332;12.410;2023-07-24T01:30:25;2.00;;;1.80;;
70416;SDS011;57839;51.332;12.410;2023-07-24T01:32:51;2.28;;;1.90;;
70416;SDS011;57839;51.332;12.410;2023-07-24T01:35:17;2.83;;;2.00;;
70416;SDS011;57839;51.332;12.410;2023-07-24T01:37:42;2.50;;;1.83;;
70416;SDS011;57839;51.332;12.410;2023-07-24T01:40:09;3.55;;;1.98;;
70416;SDS011;57839;51.332;12.410;2023-07-24T01:42:36;2.83;;;2.10;;
70416;SDS011;57839;51.332;12.410;2023-07-24T01:45:02;2.28;;;1.90;;
70416;SDS011;57839;51.332;12.410;2023-07-24T01:47:28;2.80;;;2.22;;
70416;SDS011;57839;51.332;12.410;2023-07-24T01:49:55;4.00;;;2.35;;
70416;SDS011;57839;51.332;12.410;2023-07-24T01:52:21;2.92;;;2.20;;
70416;SDS011;57839;51.332;12.410;2023-07-24T01:54:46;4.05;;;2.17;;
70416;SDS011;57839;51.332;12.410;2023-07-24T01:57:12;2.75;;;2.35;;
70416;SDS011;57839;51.332;12.410;2023-07-24T01:59:38;4.22;;;2.75;;
70416;SDS011;57839;51.332;12.410;2023-07-24T02:02:03;2.90;;;2.40;;
70416;SDS011;57839;51.332;12.410;2023-07-24T02:05:04;3.60;;;3.20;;
70416;SDS011;57839;51.332;12.410;2023-07-24T02:10:14;3.15;;;2.85;;
70416;SDS011;57839;51.332;12.410;2023-07-24T02:12:39;3.58;;;3.15;;
70416;SDS011;57839;51.332;12.410;2023-07-24T02:15:05;4.25;;;3.58;;
70416;SDS011;57839;51.332;12.410;2023-07-24T02:17:31;14.15;;;12.70;;
70416;SDS011;57839;51.332;12.410;2023-07-24T02:19:56;34.30;;;30.35;;
70416;SDS011;57839;51.332;12.410;2023-07-24T02:22:22;15.65;;;12.57;;
70416;SDS011;57839;51.332;12.410;2023-07-24T02:24:47;7.45;;;5.47;;
70416;SDS011;57839;51.332;12.410;2023-07-24T02:27:13;5.00;;;4.32;;
70416;SDS011;57839;51.332;12.410;2023-07-24T02:29:49;6.90;;;4.10;;
70416;SDS011;57839;51.332;12.410;2023-07-24T02:32:15;12.48;;;9.18;;
70416;SDS011;57839;51.332;12.410;2023-07-24T02:34:40;6.03;;;5.05;;
70416;SDS011;57839;51.332;12.410;2023-07-24T02:40:29;4.57;;;3.78;;
70416;SDS011;57839;51.332;12.410;2023-07-24T02:43:13;4.55;;;3.35;;
70416;SDS011;57839;51.332;12.410;2023-07-24T02:45:40;5.45;;;3.80;;
70416;SDS011;57839;51.332;12.410;2023-07-24T02:48:05;3.90;;;3.28;;
70416;SDS011;57839;51.332;12.410;2023-07-24T02:50:32;5.05;;;3.65;;
70416;SDS011;57839;51.332;12.410;2023-07-24T02:52:58;3.95;;;3.33;;
70416;SDS011;57839;51.332;12.410;2023-07-24T02:55:24;5.93;;;3.15;;
70416;SDS011;57839;51.332;12.410;2023-07-24T02:57:50;5.63;;;3.90;;
70416;SDS011;57839;51.332;12.410;2023-07-24T03:00:16;6.30;;;5.22;;
70416;SDS011;57839;51.332;12.410;2023-07-24T03:02:41;9.52;;;6.65;;
70416;SDS011;57839;51.332;12.410;2023-07-24T03:05:07;4.70;;;3.63;;
70416;SDS011;57839;51.332;12.410;2023-07-24T03:07:33;6.30;;;4.10;;
70416;SDS011;57839;51.332;12.410;2023-07-24T03:09:58;4.20;;;3.80;;
70416;SDS011;57839;51.332;12.410;2023-07-24T03:12:24;6.18;;;4.22;;
70416;SDS011;57839;51.332;12.410;2023-07-24T03:14:50;5.25;;;4.00;;
70416;SDS011;57839;51.332;12.410;2023-07-24T03:17:15;4.07;;;3.58;;
70416;SDS011;57839;51.332;12.410;2023-07-24T03:19:41;5.65;;;3.92;;
70416;SDS011;57839;51.332;12.410;2023-07-24T03:22:07;5.82;;;3.55;;
70416;SDS011;57839;51.332;12.410;2023-07-24T03:24:33;4.80;;;3.85;;
70416;SDS011;57839;51.332;12.410;2023-07-24T03:26:59;4.88;;;3.42;;
70416;SDS011;57839;51.332;12.410;2023-07-24T03:29:25;4.75;;;3.90;;
70416;SDS011;57839;51.332;12.410;2023-07-24T03:31:51;3.97;;;3.42;;
70416;SDS011;57839;51.332;12.410;2023-07-24T03:34:17;5.78;;;3.88;;
70416;SDS011;57839;51.332;12.410;2023-07-24T03:36:42;5.15;;;3.40;;
70416;SDS011;57839;51.332;12.410;2023-07-24T03:39:10;3.60;;;3.22;;
70416;SDS011;57839;51.332;12.410;2023-07-24T03:41:36;5.40;;;3.95;;
70416;SDS011;57839;51.332;12.410;2023-07-24T03:44:06;4.72;;;3.83;;
70416;SDS011;57839;51.332;12.410;2023-07-24T03:46:39;5.70;;;3.58;;
70416;SDS011;57839;51.332;12.410;2023-07-24T03:49:14;4.20;;;3.40;;
70416;SDS011;57839;51.332;12.410;2023-07-24T03:51:39;4.70;;;3.63;;
70416;SDS011;57839;51.332;12.410;2023-07-24T03:54:05;4.40;;;3.58;;
70416;SDS011;57839;51.332;12.410;2023-07-24T03:56:30;5.63;;;3.45;;
70416;SDS011;57839;51.332;12.410;2023-07-24T03:59:01;6.25;;;3.55;;
70416;SDS011;57839;51.332;12.410;2023-07-24T04:01:26;4.22;;;3.40;;
70416;SDS011;57839;51.332;12.410;2023-07-24T04:09:20;4.85;;;3.58;;
70416;SDS011;57839;51.332;12.410;2023-07-24T04:11:46;5.68;;;3.72;;
70416;SDS011;57839;51.332;12.410;2023-07-24T04:14:11;3.72;;;3.10;;
70416;SDS011;57839;51.332;12.410;2023-07-24T04:16:36;5.00;;;3.60;;
70416;SDS011;57839;51.332;12.410;2023-07-24T04:19:02;5.55;;;3.75;;
70416;SDS011;57839;51.332;12.410;2023-07-24T04:21:28;4.97;;;3.58;;
70416;SDS011;57839;51.332;12.410;2023-07-24T04:23:54;4.25;;;3.72;;
70416;SDS011;57839;51.332;12.410;2023-07-24T04:26:19;6.15;;;3.60;;
70416;SDS011;57839;51.332;12.410;2023-07-24T04:28:45;5.60;;;3.58;;
70416;SDS011;57839;51.332;12.410;2023-07-24T04:31:10;6.97;;;3.90;;
70416;SDS011;57839;51.332;12.410;2023-07-24T04:33:36;6.72;;;4.03;;
70416;SDS011;57839;51.332;12.410;2023-07-24T04:36:02;4.80;;;3.95;;
70416;SDS011;57839;51.332;12.410;2023-07-24T04:38:27;4.25;;;3.35;;
70416;SDS011;57839;51.332;12.410;2023-07-24T04:40:53;4.20;;;3.47;;
70416;SDS011;57839;51.332;12.410;2023-07-24T04:43:19;7.97;;;3.90;;
70416;SDS011;57839;51.332;12.410;2023-07-24T04:45:44;5.90;;;3.85;;
70416;SDS011;57839;51.332;12.410;2023-07-24T04:48:10;6.50;;;4.07;;
70416;SDS011;57839;51.332;12.410;2023-07-24T04:50:35;5.85;;;4.00;;
70416;SDS011;57839;51.332;12.410;2023-07-24T04:53:01;3.80;;;3.25;;
70416;SDS011;57839;51.332;12.410;2023-07-24T04:55:26;6.35;;;3.80;;
70416;SDS011;57839;51.332;12.410;2023-07-24T04:57:52;5.68;;;3.80;;
70416;SDS011;57839;51.332;12.410;2023-07-24T05:00:17;4.80;;;3.70;;
70416;SDS011;57839;51.332;12.410;2023-07-24T05:02:43;4.28;;;3.47;;
70416;SDS011;57839;51.332;12.410;2023-07-24T05:05:09;5.03;;;3.80;;
70416;SDS011;57839;51.332;12.410;2023-07-24T05:07:34;6.53;;;4.05;;
70416;SDS011;57839;51.332;12.410;2023-07-24T05:10:00;4.93;;;4.03;;
70416;SDS011;57839;51.332;12.410;2023-07-24T05:12:25;5.07;;;3.60;;
70416;SDS011;57839;51.332;12.410;2023-07-24T05:14:51;6.13;;;3.83;;
70416;SDS011;57839;51.332;12.410;2023-07-24T05:17:16;5.72;;;3.65;;
70416;SDS011;57839;51.332;12.410;2023-07-24T05:19:42;4.78;;;3.95;;
70416;SDS011;57839;51.332;12.410;2023-07-24T05:22:08;5.47;;;3.50;;
70416;SDS011;57839;51.332;12.410;2023-07-24T05:24:36;6.22;;;4.00;;
70416;SDS011;57839;51.332;12.410;2023-07-24T05:27:02;7.30;;;4.10;;
70416;SDS011;57839;51.332;12.410;2023-07-24T05:29:28;4.20;;;3.67;;
70416;SDS011;57839;51.332;12.410;2023-07-24T05:31:54;4.38;;;3.90;;
70416;SDS011;57839;51.332;12.410;2023-07-24T05:34:19;5.47;;;3.88;;
70416;SDS011;57839;51.332;12.410;2023-07-24T05:36:45;5.18;;;3.97;;
70416;SDS011;57839;51.332;12.410;2023-07-24T05:39:10;4.82;;;4.20;;
70416;SDS011;57839;51.332;12.410;2023-07-24T05:41:36;4.85;;;3.65;;
70416;SDS011;57839;51.332;12.410;2023-07-24T05:44:02;3.67;;;3.33;;
70416;SDS011;57839;51.332;12.410;2023-07-24T05:46:27;5.28;;;3.83;;
70416;SDS011;57839;51.332;12.410;2023-07-24T05:48:53;5.80;;;3.70;;
70416;SDS011;57839;51.332;12.410;2023-07-24T05:51:19;5.43;;;3.95;;
70416;SDS011;57839;51.332;12.410;2023-07-24T05:53:44;5.32;;;3.95;;
70416;SDS011;57839;51.332;12.410;2023-07-24T05:56:10;6.50;;;4.20;;
70416;SDS011;57839;51.332;12.410;2023-07-24T05:58:36;5.95;;;3.90;;
70416;SDS011;57839;51.332;12.410;2023-07-24T06:01:01;4.18;;;3.70;;
70416;SDS011;57839;51.332;12.410;2023-07-24T06:03:27;6.38;;;4.43;;
70416;SDS011;57839;51.332;12.410;2023-07-24T06:05:53;6.22;;;4.20;;
70416;SDS011;57839;51.332;12.410;2023-07-24T06:08:20;7.38;;;4.13;;
70416;SDS011;57839;51.332;12.410;2023-07-24T06:10:49;9.63;;;4.28;;
70416;SDS011;57839;51.332;12.410;2023-07-24T06:13:18;5.50;;;4.07;;
70416;SDS011;57839;51.332;12.410;2023-07-24T06:15:44;9.73;;;4.20;;
70416;SDS011;57839;51.332;12.410;2023-07-24T06:18:11;6.00;;;4.47;;
70416;SDS011;57839;51.332;12.410;2023-07-24T06:20:37;6.40;;;4.13;;
70416;SDS011;57839;51.332;12.410;2023-07-24T06:23:02;6.30;;;3.90;;
70416;SDS011;57839;51.332;12.410;2023-07-24T06:25:29;5.30;;;4.32;;
70416;SDS011;57839;51.332;12.410;2023-07-24T06:27:56;6.57;;;3.90;;
70416;SDS011;57839;51.332;12.410;2023-07-24T06:30:21;7.22;;;3.78;;
70416;SDS011;57839;51.332;12.410;2023-07-24T06:32:47;5.65;;;4.18;;
70416;SDS011;57839;51.332;12.410;2023-07-24T06:35:12;6.25;;;4.00;;
70416;SDS011;57839;51.332;12.410;2023-07-24T06:37:38;8.07;;;4.50;;
70416;SDS011;57839;51.332;12.410;2023-07-24T06:40:03;6.72;;;4.68;;
70416;SDS011;57839;51.332;12.410;2023-07-24T06:42:30;7.95;;;4.45;;
70416;SDS011;57839;51.332;12.410;2023-07-24T06:44:55;6.70;;;4.30;;
70416;SDS011;57839;51.332;12.410;2023-07-24T06:47:21;8.32;;;4.70;;
70416;SDS011;57839;51.332;12.410;2023-07-24T06:49:46;7.78;;;4.53;;
70416;SDS011;57839;51.332;12.410;2023-07-24T06:52:12;6.15;;;4.13;;
70416;SDS011;57839;51.332;12.410;2023-07-24T06:54:37;7.07;;;4.45;;
70416;SDS011;57839;51.332;12.410;2023-07-24T06:57:03;10.00;;;4.70;;
70416;SDS011;57839;51.332;12.410;2023-07-24T06:59:28;6.18;;;4.80;;
70416;SDS011;57839;51.332;12.410;2023-07-24T07:01:54;8.30;;;4.07;;
70416;SDS011;57839;51.332;12.410;2023-07-24T07:04:19;6.55;;;4.15;;
70416;SDS011;57839;51.332;12.410;2023-07-24T07:06:45;6.90;;;4.10;;
70416;SDS011;57839;51.332;12.410;2023-07-24T07:09:10;5.45;;;4.30;;
70416;SDS011;57839;51.332;12.410;2023-07-24T07:11:36;8.77;;;4.55;;
70416;SDS011;57839;51.332;12.410;2023-07-24T07:14:02;7.10;;;4.40;;
70416;SDS011;57839;51.332;12.410;2023-07-24T07:16:32;8.20;;;4.70;;
70416;SDS011;57839;51.332;12.410;2023-07-24T07:19:00;6.65;;;4.35;;
70416;SDS011;57839;51.332;12.410;2023-07-24T07:21:25;6.55;;;4.10;;
70416;SDS011;57839;51.332;12.410;2023-07-24T07:23:51;5.90;;;4.45;;
70416;SDS011;57839;51.332;12.410;2023-07-24T07:26:16;5.15;;;4.03;;
70416;SDS011;57839;51.332;12.410;2023-07-24T07:28:42;7.40;;;4.00;;
70416;SDS011;57839;51.332;12.410;2023-07-24T07:31:09;6.47;;;4.85;;
70416;SDS011;57839;51.332;12.410;2023-07-24T07:33:35;7.00;;;4.38;;
70416;SDS011;57839;51.332;12.410;2023-07-24T07:36:01;7.50;;;3.95;;
70416;SDS011;57839;51.332;12.410;2023-07-24T07:38:26;10.55;;;4.25;;
70416;SDS011;57839;51.332;12.410;2023-07-24T07:40:52;10.60;;;4.97;;
70416;SDS011;57839;51.332;12.410;2023-07-24T07:43:18;7.30;;;4.75;;
70416;SDS011;57839;51.332;12.410;2023-07-24T07:45:43;6.93;;;4.20;;
70416;SDS011;57839;51.332;12.410;2023-07-24T07:48:09;5.80;;;4.07;;
70416;SDS011;57839;51.332;12.410;2023-07-24T07:50:34;6.32;;;4.57;;
70416;SDS011;57839;51.332;12.410;2023-07-24T07:53:00;7.97;;;4.38;;
70416;SDS011;57839;51.332;12.410;2023-07-24T07:55:25;7.75;;;4.57;;
70416;SDS011;57839;51.332;12.410;2023-07-24T07:57:51;7.35;;;5.32;;
70416;SDS011;57839;51.332;12.410;2023-07-24T08:00:16;6.82;;;4.57;;
70416;SDS011;57839;51.332;12.410;2023-07-24T08:02:42;7.15;;;3.92;;
70416;SDS011;57839;51.332;12.410;2023-07-24T08:05:08;7.63;;;4.70;;
70416;SDS011;57839;51.332;12.410;2023-07-24T08:07:34;10.48;;;4.85;;
70416;SDS011;57839;51.332;12.410;2023-07-24T08:10:00;7.43;;;4.55;;
70416;SDS011;57839;51.332;12.410;2023-07-24T08:12:26;7.45;;;4.38;;
70416;SDS011;57839;51.332;12.410;2023-07-24T08:14:52;8.32;;;4.78;;
70416;SDS011;57839;51.332;12.410;2023-07-24T08:17:17;6.35;;;4.18;;
70416;SDS011;57839;51.332;12.410;2023-07-24T08:19:43;9.00;;;4.80;;
70416;SDS011;57839;51.332;12.410;2023-07-24T08:22:08;7.78;;;5.00;;
70416;SDS011;57839;51.332;12.410;2023-07-24T08:24:39;7.40;;;4.15;;
70416;SDS011;57839;51.332;12.410;2023-07-24T08:27:09;6.22;;;4.70;;
70416;SDS011;57839;51.332;12.410;2023-07-24T08:29:35;8.27;;;4.22;;
70416;SDS011;57839;51.332;12.410;2023-07-24T08:32:03;7.13;;;4.65;;
70416;SDS011;57839;51.332;12.410;2023-07-24T08:34:29;6.10;;;4.63;;
70416;SDS011;57839;51.332;12.410;2023-07-24T08:36:55;8.88;;;4.13;;
70416;SDS011;57839;51.332;12.410;2023-07-24T08:39:20;6.20;;;4.10;;
70416;SDS011;57839;51.332;12.410;2023-07-24T08:41:46;6.30;;;4.07;;
70416;SDS011;57839;51.332;12.410;2023-07-24T08:44:11;7.78;;;4.22;;
70416;SDS011;57839;51.332;12.410;2023-07-24T08:46:37;5.95;;;4.00;;
70416;SDS011;57839;51.332;12.410;2023-07-24T08:49:06;6.30;;;4.05;;
70416;SDS011;57839;51.332;12.410;2023-07-24T08:51:31;7.43;;;4.13;;
70416;SDS011;57839;51.332;12.410;2023-07-24T08:53:57;7.85;;;4.47;;
70416;SDS011;57839;51.332;12.410;2023-07-24T08:56:24;7.72;;;4.38;;
70416;SDS011;57839;51.332;12.410;2023-07-24T08:58:50;8.35;;;4.60;;
70416;SDS011;57839;51.332;12.410;2023-07-24T09:01:16;8.23;;;4.07;;
70416;SDS011;57839;51.332;12.410;2023-07-24T09:03:41;5.22;;;4.28;;
70416;SDS011;57839;51.332;12.410;2023-07-24T09:06:07;6.30;;;4.28;;
70416;SDS011;57839;51.332;12.410;2023-07-24T09:08:38;6.43;;;4.15;;
70416;SDS011;57839;51.332;12.410;2023-07-24T09:11:05;7.78;;;4.60;;
70416;SDS011;57839;51.332;12.410;2023-07-24T09:13:32;5.55;;;3.70;;
70416;SDS011;57839;51.332;12.410;2023-07-24T09:15:58;7.40;;;4.53;;
70416;SDS011;57839;51.332;12.410;2023-07-24T09:18:24;7.28;;;4.40;;
70416;SDS011;57839;51.332;12.410;2023-07-24T09:20:50;6.78;;;4.03;;
70416;SDS011;57839;51.332;12.410;2023-07-24T09:23:16;6.72;;;4.47;;
70416;SDS011;57839;51.332;12.410;2023-07-24T09:25:53;8.00;;;4.25;;
70416;SDS011;57839;51.332;12.410;2023-07-24T09:28:18;6.35;;;4.70;;
70416;SDS011;57839;51.332;12.410;2023-07-24T09:30:57;8.02;;;4.45;;
70416;SDS011;57839;51.332;12.410;2023-07-24T09:33:24;5.97;;;4.38;;
70416;SDS011;57839;51.332;12.410;2023-07-24T09:36:08;6.28;;;4.57;;
70416;SDS011;57839;51.332;12.410;2023-07-24T09:38:34;5.97;;;4.38;;
70416;SDS011;57839;51.332;12.410;2023-07-24T09:41:01;5.53;;;4.32;;
70416;SDS011;57839;51.332;12.410;2023-07-24T09:43:28;5.65;;;4.72;;
70416;SDS011;57839;51.332;12.410;2023-07-24T09:45:54;7.28;;;5.30;;
70416;SDS011;57839;51.332;12.410;2023-07-24T09:48:21;7.45;;;5.07;;
70416;SDS011;57839;51.332;12.410;2023-07-24T09:50:49;6.07;;;4.72;;
70416;SDS011;57839;51.332;12.410;2023-07-24T09:53:36;6.78;;;4.57;;
70416;SDS011;57839;51.332;12.410;2023-07-24T09:56:04;6.97;;;5.82;;
70416;SDS011;57839;51.332;12.410;2023-07-24T09:58:34;8.75;;;5.30;;
70416;SDS011;57839;51.332;12.410;2023-07-24T10:01:04;7.55;;;5.38;;
70416;SDS011;57839;51.332;12.410;2023-07-24T10:03:33;6.60;;;5.10;;
70416;SDS011;57839;51.332;12.410;2023-07-24T10:05:59;7.57;;;5.20;;
70416;SDS011;57839;51.332;12.410;2023-07-24T10:08:25;8.40;;;5.70;;
70416;SDS011;57839;51.332;12.410;2023-07-24T10:10:51;7.53;;;5.32;;
70416;SDS011;57839;51.332;12.410;2023-07-24T10:13:18;7.22;;;5.28;;
70416;SDS011;57839;51.332;12.410;2023-07-24T10:15:45;7.85;;;6.00;;
70416;SDS011;57839;51.332;12.410;2023-07-24T10:18:12;7.70;;;5.97;;
70416;SDS011;57839;51.332;12.410;2023-07-24T10:20:41;8.80;;;5.07;;
70416;SDS011;57839;51.332;12.410;2023-07-24T10:23:07;7.47;;;5.88;;
70416;SDS011;57839;51.332;12.410;2023-07-24T10:25:34;9.57;;;6.03;;
70416;SDS011;57839;51.332;12.410;2023-07-24T10:28:02;6.97;;;5.40;;
70416;SDS011;57839;51.332;12.410;2023-07-24T10:30:32;7.50;;;5.95;;
70416;SDS011;57839;51.332;12.410;2023-07-24T10:33:05;8.77;;;5.95;;
70416;SDS011;57839;51.332;12.410;2023-07-24T10:35:49;10.10;;;6.07;;
70416;SDS011;57839;51.332;12.410;2023-07-24T10:38:17;6.78;;;5.85;;
70416;SDS011;57839;51.332;12.410;2023-07-24T10:40:44;8.85;;;5.88;;
70416;SDS011;57839;51.332;12.410;2023-07-24T10:43:12;9.23;;;6.45;;
70416;SDS011;57839;51.332;12.410;2023-07-24T10:45:45;9.77;;;6.70;;
70416;SDS011;57839;51.332;12.410;2023-07-24T10:48:14;8.73;;;5.78;;
70416;SDS011;57839;51.332;12.410;2023-07-24T10:50:40;9.00;;;6.15;;
70416;SDS011;57839;51.332;12.410;2023-07-24T10:53:08;9.43;;;6.20;;
70416;SDS011;57839;51.332;12.410;2023-07-24T10:55:34;10.07;;;6.65;;
70416;SDS011;57839;51.332;12.410;2023-07-24T10:58:00;13.02;;;6.85;;
70416;SDS011;57839;51.332;12.410;2023-07-24T11:00:26;12.93;;;7.05;;
70416;SDS011;57839;51.332;12.410;2023-07-24T11:02:52;10.52;;;6.55;;
70416;SDS011;57839;51.332;12.410;2023-07-24T11:05:20;13.05;;;7.03;;
70416;SDS011;57839;51.332;12.410;2023-07-24T11:07:48;12.55;;;6.60;;
70416;SDS011;57839;51.332;12.410;2023-07-24T11:10:15;8.55;;;5.97;;
70416;SDS011;57839;51.332;12.410;2023-07-24T11:12:44;11.25;;;6.85;;
70416;SDS011;57839;51.332;12.410;2023-07-24T11:15:11;8.32;;;5.97;;
70416;SDS011;57839;51.332;12.410;2023-07-24T11:17:37;8.68;;;5.90;;
70416;SDS011;57839;51.332;12.410;2023-07-24T11:20:06;10.25;;;6.57;;
70416;SDS011;57839;51.332;12.410;2023-07-24T11:22:33;17.05;;;6.43;;
70416;SDS011;57839;51.332;12.410;2023-07-24T11:24:58;13.00;;;7.10;;
70416;SDS011;57839;51.332;12.410;2023-07-24T11:27:24;10.48;;;6.60;;
70416;SDS011;57839;51.332;12.410;2023-07-24T11:29:50;10.30;;;6.80;;
70416;SDS011;57839;51.332;12.410;2023-07-24T11:32:19;11.45;;;6.82;;
70416;SDS011;57839;51.332;12.410;2023-07-24T11:34:48;12.40;;;6.50;;
70416;SDS011;57839;51.332;12.410;2023-07-24T11:37:15;11.30;;;7.00;;
70416;SDS011;57839;51.332;12.410;2023-07-24T11:39:41;10.02;;;6.50;;
70416;SDS011;57839;51.332;12.410;2023-07-24T11:42:06;12.23;;;7.15;;
70416;SDS011;57839;51.332;12.410;2023-07-24T11:44:32;10.82;;;6.78;;
70416;SDS011;57839;51.332;12.410;2023-07-24T11:47:04;10.85;;;6.80;;
70416;SDS011;57839;51.332;12.410;2023-07-24T11:49:30;15.00;;;7.20;;
70416;SDS011;57839;51.332;12.410;2023-07-24T11:52:06;11.05;;;7.28;;
70416;SDS011;57839;51.332;12.410;2023-07-24T11:54:35;12.18;;;7.40;;
70416;SDS011;57839;51.332;12.410;2023-07-24T11:57:01;11.82;;;7.10;;
70416;SDS011;57839;51.332;12.410;2023-07-24T11:59:26;10.10;;;6.95;;
70416;SDS011;57839;51.332;12.410;2023-07-24T12:01:53;9.63;;;7.03;;
70416;SDS011;57839;51.332;12.410;2023-07-24T12:04:19;9.90;;;7.32;;
70416;SDS011;57839;51.332;12.410;2023-07-24T12:06:45;10.80;;;7.00;;
70416;SDS011;57839;51.332;12.410;2023-07-24T12:09:11;9.43;;;6.47;;
70416;SDS011;57839;51.332;12.410;2023-07-24T12:11:40;10.07;;;6.70;;
70416;SDS011;57839;51.332;12.410;2023-07-24T12:14:07;11.57;;;7.32;;
70416;SDS011;57839;51.332;12.410;2023-07-24T12:16:36;9.73;;;6.80;;
70416;SDS011;57839;51.332;12.410;2023-07-24T12:19:01;8.43;;;6.93;;
70416;SDS011;57839;51.332;12.410;2023-07-24T12:21:27;9.57;;;7.18;;
70416;SDS011;57839;51.332;12.410;2023-07-24T12:23:53;9.98;;;6.78;;
70416;SDS011;57839;51.332;12.410;2023-07-24T12:26:19;10.57;;;7.18;;
70416;SDS011;57839;51.332;12.410;2023-07-24T12:28:44;9.80;;;6.28;;
70416;SDS011;57839;51.332;12.410;2023-07-24T12:31:16;9.57;;;7.10;;
70416;SDS011;57839;51.332;12.410;2023-07-24T12:33:42;10.07;;;6.78;;
70416;SDS011;57839;51.332;12.410;2023-07-24T12:36:07;9.32;;;6.95;;
70416;SDS011;57839;51.332;12.410;2023-07-24T12:38:33;11.05;;;7.05;;
70416;SDS011;57839;51.332;12.410;2023-07-24T12:40:59;12.52;;;7.00;;
70416;SDS011;57839;51.332;12.410;2023-07-24T12:43:24;10.02;;;7.57;;
70416;SDS011;57839;51.332;12.410;2023-07-24T12:45:50;9.98;;;6.93;;
70416;SDS011;57839;51.332;12.410;2023-07-24T12:48:15;9.10;;;6.85;;
70416;SDS011;57839;51.332;12.410;2023-07-24T12:50:42;11.82;;;7.07;;
70416;SDS011;57839;51.332;12.410;2023-07-24T12:53:08;12.30;;;6.97;;
70416;SDS011;57839;51.332;12.410;2023-07-24T12:55:33;10.85;;;7.45;;
70416;SDS011;57839;51.332;12.410;2023-07-24T12:57:59;9.82;;;7.80;;
70416;SDS011;57839;51.332;12.410;2023-07-24T13:00:27;8.95;;;6.97;;
70416;SDS011;57839;51.332;12.410;2023-07-24T13:02:52;10.70;;;7.28;;
70416;SDS011;57839;51.332;12.410;2023-07-24T13:05:18;10.70;;;7.32;;
70416;SDS011;57839;51.332;12.410;2023-07-24T13:07:44;11.75;;;7.22;;
70416;SDS011;57839;51.332;12.410;2023-07-24T13:10:11;8.27;;;6.70;;
70416;SDS011;57839;51.332;12.410;2023-07-24T13:12:36;9.57;;;7.28;;
70416;SDS011;57839;51.332;12.410;2023-07-24T13:15:02;10.80;;;7.40;;
70416;SDS011;57839;51.332;12.410;2023-07-24T13:17:28;9.27;;;6.93;;
70416;SDS011;57839;51.332;12.410;2023-07-24T13:19:54;10.65;;;7.13;;
70416;SDS011;57839;51.332;12.410;2023-07-24T13:22:20;12.15;;;7.30;;
70416;SDS011;57839;51.332;12.410;2023-07-24T13:24:46;11.73;;;7.88;;
70416;SDS011;57839;51.332;12.410;2023-07-24T13:27:11;11.98;;;7.75;;
70416;SDS011;57839;51.332;12.410;2023-07-24T13:29:37;12.18;;;7.40;;
70416;SDS011;57839;51.332;12.410;2023-07-24T13:32:02;15.40;;;8.00;;
70416;SDS011;57839;51.332;12.410;2023-07-24T13:34:28;10.63;;;7.78;;
70416;SDS011;57839;51.332;12.410;2023-07-24T13:36:54;12.18;;;7.72;;
70416;SDS011;57839;51.332;12.410;2023-07-24T13:39:19;13.25;;;7.60;;
70416;SDS011;57839;51.332;12.410;2023-07-24T13:41:45;13.27;;;8.30;;
70416;SDS011;57839;51.332;12.410;2023-07-24T13:44:11;8.95;;;7.28;;
70416;SDS011;57839;51.332;12.410;2023-07-24T13:46:36;11.60;;;6.97;;
70416;SDS011;57839;51.332;12.410;2023-07-24T13:49:02;16.45;;;7.70;;
70416;SDS011;57839;51.332;12.410;2023-07-24T13:51:28;13.43;;;7.38;;
70416;SDS011;57839;51.332;12.410;2023-07-24T13:53:53;9.90;;;7.00;;
70416;SDS011;57839;51.332;12.410;2023-07-24T13:56:19;8.65;;;7.10;;
70416;SDS011;57839;51.332;12.410;2023-07-24T13:58:45;9.80;;;7.43;;
70416;SDS011;57839;51.332;12.410;2023-07-24T14:01:10;14.30;;;8.15;;
70416;SDS011;57839;51.332;12.410;2023-07-24T14:03:36;12.18;;;7.40;;
70416;SDS011;57839;51.332;12.410;2023-07-24T14:06:02;10.95;;;7.18;;
70416;SDS011;57839;51.332;12.410;2023-07-24T14:08:27;10.25;;;7.15;;
70416;SDS011;57839;51.332;12.410;2023-07-24T14:10:53;14.43;;;7.25;;
70416;SDS011;57839;51.332;12.410;2023-07-24T14:13:18;9.80;;;7.53;;
70416;SDS011;57839;51.332;12.410;2023-07-24T14:15:44;10.05;;;7.18;;
70416;SDS011;57839;51.332;12.410;2023-07-24T14:18:09;10.52;;;7.30;;
70416;SDS011;57839;51.332;12.410;2023-07-24T14:20:35;16.42;;;7.80;;
70416;SDS011;57839;51.332;12.410;2023-07-24T14:23:02;12.88;;;7.53;;
70416;SDS011;57839;51.332;12.410;2023-07-24T14:25:28;10.05;;;7.40;;
70416;SDS011;57839;51.332;12.410;2023-07-24T14:27:53;8.88;;;7.20;;
70416;SDS011;57839;51.332;12.410;2023-07-24T14:30:19;11.98;;;7.32;;
70416;SDS011;57839;51.332;12.410;2023-07-24T14:32:45;9.82;;;7.18;;
70416;SDS011;57839;51.332;12.410;2023-07-24T14:35:10;10.30;;;6.70;;
70416;SDS011;57839;51.332;12.410;2023-07-24T14:37:36;8.80;;;6.90;;
70416;SDS011;57839;51.332;12.410;2023-07-24T14:40:01;8.88;;;6.90;;
70416;SDS011;57839;51.332;12.410;2023-07-24T14:42:27;9.93;;;6.93;;
70416;SDS011;57839;51.332;12.410;2023-07-24T14:44:53;10.63;;;6.85;;
70416;SDS011;57839;51.332;12.410;2023-07-24T14:47:19;10.15;;;7.07;;
70416;SDS011;57839;51.332;12.410;2023-07-24T14:49:45;9.02;;;6.30;;
70416;SDS011;57839;51.332;12.410;2023-07-24T14:52:10;10.85;;;6.90;;